sensor_id;sensor_type;location;lat;lon;timestamp;P1;durP1;ratioP1;P2;durP2;ratioP2
4055;SDS011;2043;52.184;8.690;2022-12-13T00:00:56;82.10;;;29.27;;
4055;SDS011;2043;52.184;8.690;2022-12-13T00:03:23;70.87;;;29.00;;
4055;SDS011;2043;52.184;8.690;2022-12-13T00:05:50;64.73;;;28.70;;
4055;SDS011;2043;52.184;8.690;2022-12-13T00:08:19;77.13;;;29.00;;
4055;SDS011;2043;52.184;8.690;2022-12-13T00:10:46;72.83;;;28.83;;
4055;SDS011;2043;52.184;8.690;2022-12-13T00:13:13;67.20;;;28.07;;
4055;SDS011;2043;52.184;8.690;2022-12-13T00:15:40;83.73;;;30.50;;
4055;SDS011;2043;52.184;8.690;2022-12-13T00:18:08;81.27;;;29.03;;
4055;SDS011;2043;52.184;8.690;2022-12-13T00:20:38;78.37;;;28.43;;
4055;SDS011;2043;52.184;8.690;2022-12-13T00:23:05;67.23;;;27.87;;
4055;SDS011;2043;52.184;8.690;2022-12-13T00:25:32;71.40;;;28.23;;
4055;SDS011;2043;52.184;8.690;2022-12-13T00:27:59;65.53;;;26.03;;
4055;SDS011;2043;52.184;8.690;2022-12-13T00:30:27;68.80;;;27.00;;
4055;SDS011;2043;52.184;8.690;2022-12-13T00:32:57;59.10;;;24.50;;
4055;SDS011;2043;52.184;8.690;2022-12-13T00:35:24;59.60;;;23.67;;
4055;SDS011;2043;52.184;8.690;2022-12-13T00:37:51;63.07;;;24.70;;
4055;SDS011;2043;52.184;8.690;2022-12-13T00:40:18;71.50;;;27.57;;
4055;SDS011;2043;52.184;8.690;2022-12-13T00:42:46;71.50;;;26.90;;
4055;SDS011;2043;52.184;8.690;2022-12-13T00:45:14;76.00;;;27.57;;
4055;SDS011;2043;52.184;8.690;2022-12-13T00:47:41;66.43;;;26.80;;
4055;SDS011;2043;52.184;8.690;2022-12-13T00:50:08;69.50;;;28.60;;
4055;SDS011;2043;52.184;8.690;2022-12-13T00:52:36;65.97;;;26.93;;
4055;SDS011;2043;52.184;8.690;2022-12-13T00:55:03;74.87;;;28.77;;
4055;SDS011;2043;52.184;8.690;2022-12-13T00:57:30;65.17;;;25.83;;
4055;SDS011;2043;52.184;8.690;2022-12-13T00:59:58;66.73;;;24.40;;
4055;SDS011;2043;52.184;8.690;2022-12-13T01:02:26;61.40;;;25.37;;
4055;SDS011;2043;52.184;8.690;2022-12-13T01:04:52;71.03;;;27.40;;
4055;SDS011;2043;52.184;8.690;2022-12-13T01:07:19;77.93;;;27.10;;
4055;SDS011;2043;52.184;8.690;2022-12-13T01:09:47;68.33;;;25.57;;
4055;SDS011;2043;52.184;8.690;2022-12-13T01:12:14;70.30;;;26.00;;
4055;SDS011;2043;52.184;8.690;2022-12-13T01:14:40;69.90;;;26.80;;
4055;SDS011;2043;52.184;8.690;2022-12-13T01:17:08;69.77;;;26.90;;
4055;SDS011;2043;52.184;8.690;2022-12-13T01:19:35;64.73;;;24.50;;
4055;SDS011;2043;52.184;8.690;2022-12-13T01:22:03;63.70;;;25.43;;
4055;SDS011;2043;52.184;8.690;2022-12-13T01:24:32;59.87;;;23.20;;
4055;SDS011;2043;52.184;8.690;2022-12-13T01:26:59;68.53;;;24.90;;
4055;SDS011;2043;52.184;8.690;2022-12-13T01:29:26;64.07;;;23.67;;
4055;SDS011;2043;52.184;8.690;2022-12-13T01:31:53;58.23;;;24.40;;
4055;SDS011;2043;52.184;8.690;2022-12-13T01:34:21;66.43;;;26.67;;
4055;SDS011;2043;52.184;8.690;2022-12-13T01:36:52;66.23;;;25.37;;
4055;SDS011;2043;52.184;8.690;2022-12-13T01:39:24;66.23;;;24.03;;
4055;SDS011;2043;52.184;8.690;2022-12-13T01:41:52;62.00;;;23.70;;
4055;SDS011;2043;52.184;8.690;2022-12-13T01:47:17;65.40;;;25.80;;
4055;SDS011;2043;52.184;8.690;2022-12-13T01:49:49;57.70;;;24.17;;
4055;SDS011;2043;52.184;8.690;2022-12-13T01:52:17;59.77;;;24.70;;
4055;SDS011;2043;52.184;8.690;2022-12-13T01:54:45;64.87;;;25.60;;
4055;SDS011;2043;52.184;8.690;2022-12-13T01:57:16;61.93;;;25.37;;
4055;SDS011;2043;52.184;8.690;2022-12-13T01:59:44;63.37;;;24.57;;
4055;SDS011;2043;52.184;8.690;2022-12-13T02:02:13;72.40;;;26.30;;
4055;SDS011;2043;52.184;8.690;2022-12-13T02:04:44;64.53;;;25.87;;
4055;SDS011;2043;52.184;8.690;2022-12-13T02:07:29;63.53;;;24.00;;
4055;SDS011;2043;52.184;8.690;2022-12-13T02:09:58;68.47;;;25.90;;
4055;SDS011;2043;52.184;8.690;2022-12-13T02:12:29;51.80;;;22.70;;
4055;SDS011;2043;52.184;8.690;2022-12-13T02:14:58;56.63;;;23.37;;
4055;SDS011;2043;52.184;8.690;2022-12-13T02:20:32;68.37;;;24.00;;
4055;SDS011;2043;52.184;8.690;2022-12-13T02:23:26;70.03;;;24.50;;
4055;SDS011;2043;52.184;8.690;2022-12-13T02:38:57;66.20;;;23.40;;
4055;SDS011;2043;52.184;8.690;2022-12-13T02:44:14;55.20;;;21.87;;
4055;SDS011;2043;52.184;8.690;2022-12-13T02:46:53;53.07;;;22.20;;
4055;SDS011;2043;52.184;8.690;2022-12-13T02:49:27;60.33;;;22.33;;
4055;SDS011;2043;52.184;8.690;2022-12-13T02:51:57;55.50;;;21.80;;
4055;SDS011;2043;52.184;8.690;2022-12-13T02:54:25;52.63;;;21.60;;
4055;SDS011;2043;52.184;8.690;2022-12-13T02:56:56;60.73;;;23.27;;
4055;SDS011;2043;52.184;8.690;2022-12-13T02:59:26;55.23;;;21.83;;
4055;SDS011;2043;52.184;8.690;2022-12-13T03:02:23;51.07;;;21.17;;
4055;SDS011;2043;52.184;8.690;2022-12-13T03:10:38;49.93;;;20.03;;
4055;SDS011;2043;52.184;8.690;2022-12-13T03:13:21;50.03;;;19.93;;
4055;SDS011;2043;52.184;8.690;2022-12-13T03:18:37;62.27;;;20.73;;
4055;SDS011;2043;52.184;8.690;2022-12-13T03:21:06;50.43;;;19.50;;
4055;SDS011;2043;52.184;8.690;2022-12-13T03:23:35;52.57;;;19.80;;
4055;SDS011;2043;52.184;8.690;2022-12-13T03:26:16;54.70;;;21.30;;
4055;SDS011;2043;52.184;8.690;2022-12-13T03:28:49;58.60;;;20.20;;
4055;SDS011;2043;52.184;8.690;2022-12-13T03:31:16;51.57;;;20.10;;
4055;SDS011;2043;52.184;8.690;2022-12-13T03:33:43;54.03;;;20.97;;
4055;SDS011;2043;52.184;8.690;2022-12-13T03:36:10;56.73;;;21.50;;
4055;SDS011;2043;52.184;8.690;2022-12-13T03:38:38;57.90;;;22.90;;
4055;SDS011;2043;52.184;8.690;2022-12-13T03:41:07;48.70;;;20.00;;
4055;SDS011;2043;52.184;8.690;2022-12-13T03:43:36;51.43;;;21.70;;
4055;SDS011;2043;52.184;8.690;2022-12-13T03:46:04;48.03;;;20.27;;
4055;SDS011;2043;52.184;8.690;2022-12-13T03:48:31;46.20;;;20.23;;
4055;SDS011;2043;52.184;8.690;2022-12-13T03:50:58;46.50;;;19.90;;
4055;SDS011;2043;52.184;8.690;2022-12-13T03:53:25;53.23;;;20.50;;
4055;SDS011;2043;52.184;8.690;2022-12-13T03:55:59;54.53;;;19.07;;
4055;SDS011;2043;52.184;8.690;2022-12-13T03:58:28;51.10;;;20.20;;
4055;SDS011;2043;52.184;8.690;2022-12-13T04:01:03;46.60;;;19.93;;
4055;SDS011;2043;52.184;8.690;2022-12-13T04:03:34;57.80;;;21.63;;
4055;SDS011;2043;52.184;8.690;2022-12-13T04:06:02;48.63;;;20.67;;
4055;SDS011;2043;52.184;8.690;2022-12-13T04:08:29;54.60;;;22.30;;
4055;SDS011;2043;52.184;8.690;2022-12-13T04:10:56;50.00;;;20.10;;
4055;SDS011;2043;52.184;8.690;2022-12-13T04:13:23;49.70;;;20.97;;
4055;SDS011;2043;52.184;8.690;2022-12-13T04:16:00;63.37;;;20.73;;
4055;SDS011;2043;52.184;8.690;2022-12-13T04:18:28;54.00;;;19.63;;
4055;SDS011;2043;52.184;8.690;2022-12-13T04:20:54;52.60;;;20.57;;
4055;SDS011;2043;52.184;8.690;2022-12-13T04:23:22;53.77;;;21.90;;
4055;SDS011;2043;52.184;8.690;2022-12-13T04:25:49;57.23;;;20.33;;
4055;SDS011;2043;52.184;8.690;2022-12-13T04:28:16;52.03;;;19.37;;
4055;SDS011;2043;52.184;8.690;2022-12-13T04:30:48;49.53;;;18.83;;
4055;SDS011;2043;52.184;8.690;2022-12-13T04:33:19;61.77;;;20.97;;
4055;SDS011;2043;52.184;8.690;2022-12-13T04:35:46;58.77;;;19.87;;
4055;SDS011;2043;52.184;8.690;2022-12-13T04:38:13;54.97;;;20.20;;
4055;SDS011;2043;52.184;8.690;2022-12-13T04:40:41;58.73;;;20.73;;
4055;SDS011;2043;52.184;8.690;2022-12-13T04:43:07;54.13;;;21.10;;
4055;SDS011;2043;52.184;8.690;2022-12-13T04:45:34;55.13;;;20.13;;
4055;SDS011;2043;52.184;8.690;2022-12-13T04:48:02;61.20;;;20.60;;
4055;SDS011;2043;52.184;8.690;2022-12-13T04:50:29;56.90;;;20.80;;
4055;SDS011;2043;52.184;8.690;2022-12-13T04:52:56;51.33;;;19.17;;
4055;SDS011;2043;52.184;8.690;2022-12-13T04:55:23;55.30;;;19.80;;
4055;SDS011;2043;52.184;8.690;2022-12-13T04:57:50;50.40;;;19.40;;
4055;SDS011;2043;52.184;8.690;2022-12-13T05:00:17;59.70;;;20.40;;
4055;SDS011;2043;52.184;8.690;2022-12-13T05:02:46;49.67;;;20.60;;
4055;SDS011;2043;52.184;8.690;2022-12-13T05:05:13;60.67;;;21.20;;
4055;SDS011;2043;52.184;8.690;2022-12-13T05:07:40;63.17;;;21.03;;
4055;SDS011;2043;52.184;8.690;2022-12-13T05:10:08;50.23;;;20.57;;
4055;SDS011;2043;52.184;8.690;2022-12-13T05:12:36;55.67;;;19.90;;
4055;SDS011;2043;52.184;8.690;2022-12-13T05:15:04;63.47;;;21.60;;
4055;SDS011;2043;52.184;8.690;2022-12-13T05:17:31;48.67;;;18.13;;
4055;SDS011;2043;52.184;8.690;2022-12-13T05:19:58;62.60;;;21.33;;
4055;SDS011;2043;52.184;8.690;2022-12-13T05:22:25;65.00;;;19.43;;
4055;SDS011;2043;52.184;8.690;2022-12-13T05:24:53;59.80;;;21.00;;
4055;SDS011;2043;52.184;8.690;2022-12-13T05:27:19;57.93;;;19.77;;
4055;SDS011;2043;52.184;8.690;2022-12-13T05:29:51;55.40;;;20.03;;
4055;SDS011;2043;52.184;8.690;2022-12-13T05:32:35;51.37;;;18.97;;
4055;SDS011;2043;52.184;8.690;2022-12-13T05:35:09;52.60;;;19.83;;
4055;SDS011;2043;52.184;8.690;2022-12-13T05:37:48;55.00;;;20.07;;
4055;SDS011;2043;52.184;8.690;2022-12-13T05:40:20;59.23;;;19.77;;
4055;SDS011;2043;52.184;8.690;2022-12-13T05:42:48;62.13;;;20.10;;
4055;SDS011;2043;52.184;8.690;2022-12-13T05:45:18;46.47;;;17.43;;
4055;SDS011;2043;52.184;8.690;2022-12-13T05:47:45;50.80;;;18.73;;
4055;SDS011;2043;52.184;8.690;2022-12-13T05:50:15;60.03;;;19.00;;
4055;SDS011;2043;52.184;8.690;2022-12-13T05:52:42;54.13;;;20.07;;
4055;SDS011;2043;52.184;8.690;2022-12-13T05:55:10;56.10;;;19.50;;
4055;SDS011;2043;52.184;8.690;2022-12-13T05:57:37;76.90;;;20.27;;
4055;SDS011;2043;52.184;8.690;2022-12-13T06:00:05;69.00;;;19.20;;
4055;SDS011;2043;52.184;8.690;2022-12-13T06:02:53;51.40;;;17.77;;
4055;SDS011;2043;52.184;8.690;2022-12-13T06:05:20;68.83;;;19.77;;
4055;SDS011;2043;52.184;8.690;2022-12-13T06:07:47;61.07;;;17.10;;
4055;SDS011;2043;52.184;8.690;2022-12-13T06:10:21;71.07;;;20.47;;
4055;SDS011;2043;52.184;8.690;2022-12-13T06:12:48;75.00;;;18.73;;
4055;SDS011;2043;52.184;8.690;2022-12-13T06:15:15;51.30;;;18.70;;
4055;SDS011;2043;52.184;8.690;2022-12-13T06:17:48;53.60;;;19.10;;
4055;SDS011;2043;52.184;8.690;2022-12-13T06:20:15;70.93;;;20.67;;
4055;SDS011;2043;52.184;8.690;2022-12-13T06:22:49;73.37;;;19.00;;
4055;SDS011;2043;52.184;8.690;2022-12-13T06:25:16;82.87;;;22.63;;
4055;SDS011;2043;52.184;8.690;2022-12-13T06:27:56;77.10;;;21.67;;
4055;SDS011;2043;52.184;8.690;2022-12-13T06:30:26;92.50;;;22.53;;
4055;SDS011;2043;52.184;8.690;2022-12-13T06:32:53;106.03;;;23.53;;
4055;SDS011;2043;52.184;8.690;2022-12-13T06:35:20;68.80;;;22.47;;
4055;SDS011;2043;52.184;8.690;2022-12-13T06:37:58;57.07;;;19.97;;
4055;SDS011;2043;52.184;8.690;2022-12-13T06:40:27;50.17;;;18.90;;
4055;SDS011;2043;52.184;8.690;2022-12-13T06:42:55;64.00;;;20.37;;
4055;SDS011;2043;52.184;8.690;2022-12-13T06:45:22;61.63;;;21.03;;
4055;SDS011;2043;52.184;8.690;2022-12-13T06:47:49;63.20;;;21.67;;
4055;SDS011;2043;52.184;8.690;2022-12-13T06:50:16;58.90;;;21.03;;
4055;SDS011;2043;52.184;8.690;2022-12-13T06:52:46;62.70;;;19.80;;
4055;SDS011;2043;52.184;8.690;2022-12-13T06:55:13;64.00;;;21.33;;
4055;SDS011;2043;52.184;8.690;2022-12-13T06:57:49;61.20;;;23.37;;
4055;SDS011;2043;52.184;8.690;2022-12-13T07:00:16;93.60;;;23.97;;
4055;SDS011;2043;52.184;8.690;2022-12-13T07:02:51;63.17;;;21.10;;
4055;SDS011;2043;52.184;8.690;2022-12-13T07:05:19;68.53;;;20.10;;
4055;SDS011;2043;52.184;8.690;2022-12-13T07:07:46;77.23;;;23.17;;
4055;SDS011;2043;52.184;8.690;2022-12-13T07:10:14;58.70;;;20.50;;
4055;SDS011;2043;52.184;8.690;2022-12-13T07:12:47;83.40;;;22.47;;
4055;SDS011;2043;52.184;8.690;2022-12-13T07:15:15;94.53;;;25.10;;
4055;SDS011;2043;52.184;8.690;2022-12-13T07:17:42;90.20;;;24.90;;
4055;SDS011;2043;52.184;8.690;2022-12-13T07:20:09;71.33;;;21.60;;
4055;SDS011;2043;52.184;8.690;2022-12-13T07:22:38;62.83;;;23.20;;
4055;SDS011;2043;52.184;8.690;2022-12-13T07:25:13;77.07;;;23.03;;
4055;SDS011;2043;52.184;8.690;2022-12-13T07:28:04;59.20;;;19.63;;
4055;SDS011;2043;52.184;8.690;2022-12-13T07:30:33;65.27;;;20.57;;
4055;SDS011;2043;52.184;8.690;2022-12-13T07:33:07;65.03;;;20.97;;
4055;SDS011;2043;52.184;8.690;2022-12-13T07:35:34;50.13;;;19.50;;
4055;SDS011;2043;52.184;8.690;2022-12-13T07:38:02;69.27;;;20.90;;
4055;SDS011;2043;52.184;8.690;2022-12-13T07:40:32;64.30;;;21.17;;
4055;SDS011;2043;52.184;8.690;2022-12-13T07:43:00;65.60;;;20.27;;
4055;SDS011;2043;52.184;8.690;2022-12-13T07:45:27;67.47;;;20.90;;
4055;SDS011;2043;52.184;8.690;2022-12-13T07:47:54;73.07;;;23.67;;
4055;SDS011;2043;52.184;8.690;2022-12-13T07:50:21;73.13;;;22.60;;
4055;SDS011;2043;52.184;8.690;2022-12-13T07:52:50;58.33;;;21.20;;
4055;SDS011;2043;52.184;8.690;2022-12-13T07:55:17;69.40;;;21.40;;
4055;SDS011;2043;52.184;8.690;2022-12-13T07:58:16;56.73;;;21.97;;
4055;SDS011;2043;52.184;8.690;2022-12-13T08:00:44;56.17;;;20.57;;
4055;SDS011;2043;52.184;8.690;2022-12-13T08:03:12;48.23;;;18.97;;
4055;SDS011;2043;52.184;8.690;2022-12-13T08:05:57;55.93;;;19.80;;
4055;SDS011;2043;52.184;8.690;2022-12-13T08:08:29;60.53;;;22.87;;
4055;SDS011;2043;52.184;8.690;2022-12-13T08:11:00;50.50;;;20.20;;
4055;SDS011;2043;52.184;8.690;2022-12-13T08:13:28;58.70;;;20.23;;
4055;SDS011;2043;52.184;8.690;2022-12-13T08:15:59;58.87;;;22.70;;
4055;SDS011;2043;52.184;8.690;2022-12-13T08:21:13;56.47;;;21.33;;
4055;SDS011;2043;52.184;8.690;2022-12-13T08:24:00;52.90;;;20.03;;
4055;SDS011;2043;52.184;8.690;2022-12-13T08:26:50;55.17;;;22.90;;
4055;SDS011;2043;52.184;8.690;2022-12-13T08:29:17;63.10;;;22.60;;
4055;SDS011;2043;52.184;8.690;2022-12-13T08:31:58;67.17;;;22.53;;
4055;SDS011;2043;52.184;8.690;2022-12-13T08:34:26;63.63;;;21.87;;
4055;SDS011;2043;52.184;8.690;2022-12-13T08:36:53;55.33;;;20.60;;
4055;SDS011;2043;52.184;8.690;2022-12-13T08:39:27;48.23;;;20.03;;
4055;SDS011;2043;52.184;8.690;2022-12-13T08:41:55;52.80;;;19.83;;
4055;SDS011;2043;52.184;8.690;2022-12-13T08:44:22;61.53;;;20.03;;
4055;SDS011;2043;52.184;8.690;2022-12-13T08:46:49;47.63;;;19.13;;
4055;SDS011;2043;52.184;8.690;2022-12-13T08:49:16;56.20;;;20.77;;
4055;SDS011;2043;52.184;8.690;2022-12-13T08:51:43;59.53;;;22.03;;
4055;SDS011;2043;52.184;8.690;2022-12-13T08:54:10;54.43;;;20.83;;
4055;SDS011;2043;52.184;8.690;2022-12-13T08:56:37;58.07;;;22.90;;
4055;SDS011;2043;52.184;8.690;2022-12-13T08:59:08;52.87;;;21.33;;
4055;SDS011;2043;52.184;8.690;2022-12-13T09:01:35;50.73;;;21.20;;
4055;SDS011;2043;52.184;8.690;2022-12-13T09:04:02;56.60;;;22.20;;
4055;SDS011;2043;52.184;8.690;2022-12-13T09:06:29;50.43;;;19.60;;
4055;SDS011;2043;52.184;8.690;2022-12-13T09:08:57;61.27;;;19.90;;
4055;SDS011;2043;52.184;8.690;2022-12-13T09:11:29;54.70;;;20.90;;
4055;SDS011;2043;52.184;8.690;2022-12-13T09:14:01;53.53;;;21.50;;
4055;SDS011;2043;52.184;8.690;2022-12-13T09:16:28;51.10;;;20.57;;
4055;SDS011;2043;52.184;8.690;2022-12-13T09:19:02;53.53;;;22.47;;
4055;SDS011;2043;52.184;8.690;2022-12-13T09:21:50;49.77;;;19.90;;
4055;SDS011;2043;52.184;8.690;2022-12-13T09:24:27;61.53;;;21.53;;
4055;SDS011;2043;52.184;8.690;2022-12-13T09:27:01;56.70;;;21.80;;
4055;SDS011;2043;52.184;8.690;2022-12-13T09:29:35;58.47;;;23.30;;
4055;SDS011;2043;52.184;8.690;2022-12-13T09:32:14;51.50;;;22.17;;
4055;SDS011;2043;52.184;8.690;2022-12-13T09:34:40;52.80;;;24.23;;
4055;SDS011;2043;52.184;8.690;2022-12-13T09:37:11;52.77;;;22.63;;
4055;SDS011;2043;52.184;8.690;2022-12-13T09:39:48;53.60;;;23.27;;
4055;SDS011;2043;52.184;8.690;2022-12-13T09:42:21;51.33;;;23.63;;
4055;SDS011;2043;52.184;8.690;2022-12-13T09:44:59;53.43;;;24.63;;
4055;SDS011;2043;52.184;8.690;2022-12-13T09:47:32;50.47;;;23.80;;
4055;SDS011;2043;52.184;8.690;2022-12-13T09:50:06;60.37;;;23.00;;
4055;SDS011;2043;52.184;8.690;2022-12-13T09:52:41;50.23;;;23.77;;
4055;SDS011;2043;52.184;8.690;2022-12-13T09:55:19;54.83;;;24.93;;
4055;SDS011;2043;52.184;8.690;2022-12-13T09:57:56;51.00;;;23.73;;
4055;SDS011;2043;52.184;8.690;2022-12-13T10:00:27;53.57;;;23.90;;
4055;SDS011;2043;52.184;8.690;2022-12-13T10:03:00;52.63;;;24.60;;
4055;SDS011;2043;52.184;8.690;2022-12-13T10:08:13;53.00;;;24.07;;
4055;SDS011;2043;52.184;8.690;2022-12-13T10:10:44;61.20;;;26.80;;
4055;SDS011;2043;52.184;8.690;2022-12-13T10:15:56;58.97;;;25.80;;
4055;SDS011;2043;52.184;8.690;2022-12-13T10:18:32;52.70;;;25.40;;
4055;SDS011;2043;52.184;8.690;2022-12-13T10:21:06;57.53;;;25.47;;
4055;SDS011;2043;52.184;8.690;2022-12-13T10:23:45;49.40;;;23.70;;
4055;SDS011;2043;52.184;8.690;2022-12-13T10:26:36;64.80;;;27.27;;
4055;SDS011;2043;52.184;8.690;2022-12-13T10:29:04;57.13;;;26.53;;
4055;SDS011;2043;52.184;8.690;2022-12-13T10:31:42;51.60;;;25.53;;
4055;SDS011;2043;52.184;8.690;2022-12-13T10:34:15;55.50;;;25.57;;
4055;SDS011;2043;52.184;8.690;2022-12-13T10:36:50;50.67;;;25.93;;
4055;SDS011;2043;52.184;8.690;2022-12-13T10:39:37;58.33;;;25.30;;
4055;SDS011;2043;52.184;8.690;2022-12-13T10:42:13;54.97;;;25.50;;
4055;SDS011;2043;52.184;8.690;2022-12-13T10:44:48;53.53;;;24.27;;
4055;SDS011;2043;52.184;8.690;2022-12-13T10:47:35;54.57;;;23.80;;
4055;SDS011;2043;52.184;8.690;2022-12-13T10:50:03;55.73;;;26.40;;
4055;SDS011;2043;52.184;8.690;2022-12-13T10:52:31;56.27;;;24.63;;
4055;SDS011;2043;52.184;8.690;2022-12-13T10:58:15;55.03;;;24.90;;
4055;SDS011;2043;52.184;8.690;2022-12-13T11:00:45;52.17;;;24.37;;
4055;SDS011;2043;52.184;8.690;2022-12-13T11:03:26;57.23;;;24.60;;
4055;SDS011;2043;52.184;8.690;2022-12-13T11:08:29;49.67;;;24.37;;
4055;SDS011;2043;52.184;8.690;2022-12-13T11:11:00;51.80;;;25.40;;
4055;SDS011;2043;52.184;8.690;2022-12-13T11:13:40;50.87;;;24.80;;
4055;SDS011;2043;52.184;8.690;2022-12-13T11:19:04;58.50;;;27.67;;
4055;SDS011;2043;52.184;8.690;2022-12-13T11:21:44;51.10;;;25.57;;
4055;SDS011;2043;52.184;8.690;2022-12-13T11:24:31;58.53;;;25.77;;
4055;SDS011;2043;52.184;8.690;2022-12-13T11:27:04;57.20;;;26.57;;
4055;SDS011;2043;52.184;8.690;2022-12-13T11:38:10;53.83;;;26.20;;
4055;SDS011;2043;52.184;8.690;2022-12-13T11:40:51;51.57;;;25.47;;
4055;SDS011;2043;52.184;8.690;2022-12-13T11:43:27;49.73;;;25.37;;
4055;SDS011;2043;52.184;8.690;2022-12-13T11:46:05;54.10;;;25.70;;
4055;SDS011;2043;52.184;8.690;2022-12-13T11:49:17;58.70;;;25.83;;
4055;SDS011;2043;52.184;8.690;2022-12-13T12:00:32;49.77;;;23.40;;
4055;SDS011;2043;52.184;8.690;2022-12-13T12:05:49;54.53;;;24.67;;
4055;SDS011;2043;52.184;8.690;2022-12-13T12:08:43;52.23;;;23.67;;
4055;SDS011;2043;52.184;8.690;2022-12-13T12:13:41;54.07;;;26.43;;
4055;SDS011;2043;52.184;8.690;2022-12-13T12:18:54;58.23;;;25.90;;
4055;SDS011;2043;52.184;8.690;2022-12-13T12:21:36;50.97;;;25.73;;
4055;SDS011;2043;52.184;8.690;2022-12-13T12:27:37;60.37;;;26.30;;
4055;SDS011;2043;52.184;8.690;2022-12-13T12:33:43;53.13;;;24.73;;
4055;SDS011;2043;52.184;8.690;2022-12-13T12:38:43;45.20;;;21.93;;
4055;SDS011;2043;52.184;8.690;2022-12-13T12:41:59;49.67;;;22.37;;
4055;SDS011;2043;52.184;8.690;2022-12-13T12:56:54;48.90;;;23.00;;
4055;SDS011;2043;52.184;8.690;2022-12-13T12:59:39;48.80;;;22.40;;
4055;SDS011;2043;52.184;8.690;2022-12-13T13:04:57;63.27;;;24.20;;
4055;SDS011;2043;52.184;8.690;2022-12-13T13:07:35;61.37;;;24.63;;
4055;SDS011;2043;52.184;8.690;2022-12-13T13:10:16;53.20;;;23.77;;
4055;SDS011;2043;52.184;8.690;2022-12-13T13:12:52;54.50;;;22.90;;
4055;SDS011;2043;52.184;8.690;2022-12-13T13:15:42;52.63;;;22.80;;
4055;SDS011;2043;52.184;8.690;2022-12-13T13:24:05;56.77;;;23.23;;
4055;SDS011;2043;52.184;8.690;2022-12-13T13:34:40;57.17;;;24.07;;
4055;SDS011;2043;52.184;8.690;2022-12-13T13:40:00;51.00;;;22.37;;
4055;SDS011;2043;52.184;8.690;2022-12-13T13:48:37;57.70;;;23.60;;
4055;SDS011;2043;52.184;8.690;2022-12-13T13:51:37;54.40;;;23.13;;
4055;SDS011;2043;52.184;8.690;2022-12-13T13:58:25;50.60;;;23.77;;
4055;SDS011;2043;52.184;8.690;2022-12-13T14:14:17;61.37;;;23.30;;
4055;SDS011;2043;52.184;8.690;2022-12-13T14:22:34;68.40;;;28.30;;
4055;SDS011;2043;52.184;8.690;2022-12-13T14:30:21;64.77;;;24.60;;
4055;SDS011;2043;52.184;8.690;2022-12-13T14:32:54;60.57;;;23.13;;
4055;SDS011;2043;52.184;8.690;2022-12-13T14:35:26;70.90;;;25.27;;
4055;SDS011;2043;52.184;8.690;2022-12-13T14:42:54;75.60;;;26.57;;
4055;SDS011;2043;52.184;8.690;2022-12-13T14:47:53;71.90;;;24.57;;
4055;SDS011;2043;52.184;8.690;2022-12-13T14:50:22;74.10;;;26.60;;
4055;SDS011;2043;52.184;8.690;2022-12-13T14:52:50;58.97;;;24.03;;
4055;SDS011;2043;52.184;8.690;2022-12-13T14:57:54;66.30;;;25.80;;
4055;SDS011;2043;52.184;8.690;2022-12-13T15:02:58;66.57;;;28.60;;
4055;SDS011;2043;52.184;8.690;2022-12-13T15:05:40;66.13;;;26.10;;
4055;SDS011;2043;52.184;8.690;2022-12-13T15:08:16;68.50;;;24.87;;
4055;SDS011;2043;52.184;8.690;2022-12-13T15:10:45;70.03;;;27.60;;
4055;SDS011;2043;52.184;8.690;2022-12-13T15:15:55;71.13;;;28.97;;
4055;SDS011;2043;52.184;8.690;2022-12-13T15:18:36;75.37;;;28.53;;
4055;SDS011;2043;52.184;8.690;2022-12-13T15:21:03;65.07;;;27.83;;
4055;SDS011;2043;52.184;8.690;2022-12-13T15:23:50;71.73;;;28.37;;
4055;SDS011;2043;52.184;8.690;2022-12-13T15:26:20;70.17;;;28.57;;
4055;SDS011;2043;52.184;8.690;2022-12-13T15:28:56;79.80;;;29.03;;
4055;SDS011;2043;52.184;8.690;2022-12-13T15:31:26;79.80;;;31.07;;
4055;SDS011;2043;52.184;8.690;2022-12-13T15:33:53;78.43;;;29.37;;
4055;SDS011;2043;52.184;8.690;2022-12-13T15:36:26;71.40;;;28.53;;
4055;SDS011;2043;52.184;8.690;2022-12-13T15:41:23;66.77;;;26.73;;
4055;SDS011;2043;52.184;8.690;2022-12-13T15:43:55;64.90;;;24.50;;
4055;SDS011;2043;52.184;8.690;2022-12-13T15:46:25;79.80;;;26.80;;
4055;SDS011;2043;52.184;8.690;2022-12-13T15:48:58;61.33;;;25.30;;
4055;SDS011;2043;52.184;8.690;2022-12-13T15:51:27;65.10;;;23.47;;
4055;SDS011;2043;52.184;8.690;2022-12-13T15:56:29;65.83;;;24.93;;
4055;SDS011;2043;52.184;8.690;2022-12-13T15:59:00;61.37;;;25.80;;
4055;SDS011;2043;52.184;8.690;2022-12-13T16:01:31;64.27;;;26.13;;
4055;SDS011;2043;52.184;8.690;2022-12-13T16:04:01;66.43;;;25.27;;
4055;SDS011;2043;52.184;8.690;2022-12-13T16:06:30;58.80;;;23.10;;
4055;SDS011;2043;52.184;8.690;2022-12-13T16:09:02;58.77;;;24.13;;
4055;SDS011;2043;52.184;8.690;2022-12-13T16:11:32;85.60;;;27.30;;
4055;SDS011;2043;52.184;8.690;2022-12-13T16:16:57;74.80;;;26.27;;
4055;SDS011;2043;52.184;8.690;2022-12-13T16:19:35;77.20;;;26.30;;
4055;SDS011;2043;52.184;8.690;2022-12-13T16:22:03;68.60;;;25.20;;
4055;SDS011;2043;52.184;8.690;2022-12-13T16:24:34;83.03;;;27.70;;
4055;SDS011;2043;52.184;8.690;2022-12-13T16:27:01;95.10;;;31.70;;
4055;SDS011;2043;52.184;8.690;2022-12-13T16:29:34;76.03;;;25.30;;
4055;SDS011;2043;52.184;8.690;2022-12-13T16:32:01;70.27;;;25.80;;
4055;SDS011;2043;52.184;8.690;2022-12-13T16:34:34;72.90;;;24.27;;
4055;SDS011;2043;52.184;8.690;2022-12-13T16:37:04;66.83;;;22.63;;
4055;SDS011;2043;52.184;8.690;2022-12-13T16:39:52;59.13;;;21.87;;
4055;SDS011;2043;52.184;8.690;2022-12-13T16:42:19;68.63;;;24.50;;
4055;SDS011;2043;52.184;8.690;2022-12-13T16:44:51;55.80;;;22.23;;
4055;SDS011;2043;52.184;8.690;2022-12-13T16:47:38;60.57;;;23.03;;
4055;SDS011;2043;52.184;8.690;2022-12-13T16:50:14;59.37;;;22.03;;
4055;SDS011;2043;52.184;8.690;2022-12-13T16:52:43;53.50;;;20.67;;
4055;SDS011;2043;52.184;8.690;2022-12-13T16:55:10;58.03;;;22.23;;
4055;SDS011;2043;52.184;8.690;2022-12-13T16:57:37;62.37;;;22.47;;
4055;SDS011;2043;52.184;8.690;2022-12-13T17:00:05;67.10;;;27.87;;
4055;SDS011;2043;52.184;8.690;2022-12-13T17:02:35;93.03;;;36.47;;
4055;SDS011;2043;52.184;8.690;2022-12-13T17:05:03;73.40;;;28.87;;
4055;SDS011;2043;52.184;8.690;2022-12-13T17:07:30;62.53;;;21.37;;
4055;SDS011;2043;52.184;8.690;2022-12-13T17:09:58;48.27;;;20.50;;
4055;SDS011;2043;52.184;8.690;2022-12-13T17:12:25;50.30;;;19.00;;
4055;SDS011;2043;52.184;8.690;2022-12-13T17:14:52;56.17;;;20.00;;
4055;SDS011;2043;52.184;8.690;2022-12-13T17:17:19;59.73;;;21.90;;
4055;SDS011;2043;52.184;8.690;2022-12-13T17:19:46;66.23;;;20.30;;
4055;SDS011;2043;52.184;8.690;2022-12-13T17:22:13;56.43;;;21.40;;
4055;SDS011;2043;52.184;8.690;2022-12-13T17:24:41;52.40;;;22.10;;
4055;SDS011;2043;52.184;8.690;2022-12-13T17:27:08;50.20;;;18.07;;
4055;SDS011;2043;52.184;8.690;2022-12-13T17:29:35;54.30;;;20.57;;
4055;SDS011;2043;52.184;8.690;2022-12-13T17:32:03;55.17;;;19.20;;
4055;SDS011;2043;52.184;8.690;2022-12-13T17:34:30;49.00;;;19.07;;
4055;SDS011;2043;52.184;8.690;2022-12-13T17:36:57;58.10;;;18.80;;
4055;SDS011;2043;52.184;8.690;2022-12-13T17:39:24;42.60;;;17.83;;
4055;SDS011;2043;52.184;8.690;2022-12-13T17:41:51;49.60;;;18.83;;
4055;SDS011;2043;52.184;8.690;2022-12-13T17:44:20;67.20;;;20.77;;
4055;SDS011;2043;52.184;8.690;2022-12-13T17:46:48;48.53;;;18.37;;
4055;SDS011;2043;52.184;8.690;2022-12-13T17:49:20;40.80;;;17.50;;
4055;SDS011;2043;52.184;8.690;2022-12-13T17:51:47;39.03;;;16.60;;
4055;SDS011;2043;52.184;8.690;2022-12-13T17:54:17;42.77;;;15.90;;
4055;SDS011;2043;52.184;8.690;2022-12-13T17:56:44;37.93;;;15.27;;
4055;SDS011;2043;52.184;8.690;2022-12-13T17:59:12;41.27;;;16.77;;
4055;SDS011;2043;52.184;8.690;2022-12-13T18:01:43;38.60;;;14.90;;
4055;SDS011;2043;52.184;8.690;2022-12-13T18:04:10;43.03;;;15.57;;